createdAt,value
2022-08-14T00:02:31.263Z,19.49
2022-08-14T00:05:00.128Z,19.37
2022-08-14T00:07:30.405Z,19.26
2022-08-14T00:10:50.494Z,19.22
2022-08-14T00:12:56.735Z,19.03
2022-08-14T00:15:37.440Z,19.03
2022-08-14T00:18:30.419Z,19.21
2022-08-14T00:21:11.109Z,19.10
2022-08-14T00:23:41.508Z,19.01
2022-08-14T00:26:21.677Z,18.99
2022-08-14T00:28:51.441Z,18.94
2022-08-14T00:31:19.847Z,18.74
2022-08-14T00:34:37.021Z,18.43
2022-08-14T00:36:51.468Z,18.61
2022-08-14T00:39:21.147Z,18.14
2022-08-14T00:41:49.612Z,18.06
2022-08-14T00:44:27.473Z,18.07
2022-08-14T00:47:03.492Z,17.94
2022-08-14T00:49:38.318Z,17.75
2022-08-14T00:52:17.781Z,17.67
2022-08-14T00:54:57.972Z,17.75
2022-08-14T00:57:35.422Z,17.61
2022-08-14T01:00:07.331Z,17.50
2022-08-14T01:02:55.567Z,17.66
2022-08-14T01:05:27.586Z,17.64
2022-08-14T01:08:50.754Z,17.63
2022-08-14T01:11:00.624Z,17.47
2022-08-14T01:13:42.192Z,17.55
2022-08-14T01:16:14.904Z,17.30
2022-08-14T01:19:02.374Z,17.35
2022-08-14T01:21:38.869Z,16.81
2022-08-14T01:24:24.708Z,17.09
2022-08-14T01:27:00.940Z,16.85
2022-08-14T01:29:58.774Z,16.81
2022-08-14T01:32:26.404Z,16.72
2022-08-14T01:35:18.393Z,16.79
2022-08-14T01:37:56.375Z,16.71
2022-08-14T01:40:36.498Z,16.67
2022-08-14T01:43:18.794Z,16.63
2022-08-14T01:45:57.891Z,16.52
2022-08-14T01:48:37.242Z,16.68
2022-08-14T01:51:19.224Z,16.73
2022-08-14T01:53:55.347Z,16.61
2022-08-14T01:56:37.273Z,16.70
2022-08-14T01:59:14.581Z,16.78
2022-08-14T02:02:19.652Z,16.46
2022-08-14T02:04:57.283Z,16.71
2022-08-14T02:07:34.930Z,16.65
2022-08-14T02:10:16.497Z,16.60
2022-08-14T02:12:54.250Z,16.34
2022-08-14T02:15:26.522Z,16.32
2022-08-14T02:17:54.821Z,16.29
2022-08-14T02:20:23.536Z,16.26
2022-08-14T02:22:54.702Z,16.28
2022-08-14T02:25:25.049Z,16.20
2022-08-14T02:28:25.236Z,15.97
2022-08-14T02:30:47.039Z,15.91
2022-08-14T02:33:15.322Z,15.75
2022-08-14T02:35:49.902Z,15.71
2022-08-14T02:38:30.629Z,15.78
2022-08-14T02:41:08.941Z,15.38
2022-08-14T02:43:46.516Z,15.42
2022-08-14T02:46:20.357Z,15.83
2022-08-14T02:49:04.568Z,15.82
2022-08-14T02:51:36.507Z,15.79
2022-08-14T02:54:07.149Z,15.72
2022-08-14T02:57:16.759Z,15.63
2022-08-14T02:59:33.687Z,15.64
2022-08-14T03:02:04.473Z,15.51
2022-08-14T03:04:33.971Z,15.33
2022-08-14T03:07:07.336Z,15.45
2022-08-14T03:10:25.633Z,15.42
2022-08-14T03:12:32.134Z,15.44
2022-08-14T03:15:03.629Z,14.44
2022-08-14T03:17:40.765Z,15.33
2022-08-14T03:20:23.382Z,15.40
2022-08-14T03:22:52.526Z,14.94
2022-08-14T03:25:23.124Z,15.40
2022-08-14T03:27:58.691Z,15.43
2022-08-14T03:30:39.634Z,15.50
2022-08-14T03:33:12.014Z,15.46
2022-08-14T03:35:59.996Z,15.67
2022-08-14T03:39:14.854Z,15.70
2022-08-14T03:41:23.266Z,15.71
2022-08-14T03:44:00.954Z,15.53
2022-08-14T03:46:49.223Z,15.50
2022-08-14T03:49:28.634Z,15.56
2022-08-14T03:52:01.145Z,15.55
2022-08-14T03:54:30.207Z,15.49
2022-08-14T03:57:02.921Z,15.46
2022-08-14T03:59:34.131Z,15.17
2022-08-14T04:02:31.774Z,15.03
2022-08-14T04:04:53.409Z,14.94
2022-08-14T04:07:22.469Z,14.83
2022-08-14T04:09:50.858Z,14.86
2022-08-14T04:12:26.648Z,14.98
2022-08-14T04:14:56.775Z,14.88
2022-08-14T04:17:26.228Z,14.91
2022-08-14T04:19:55.242Z,14.97
2022-08-14T04:22:25.291Z,15.05
2022-08-14T04:24:53.833Z,15.00
2022-08-14T04:27:23.275Z,14.92
2022-08-14T04:29:51.711Z,14.85
2022-08-14T04:33:00.675Z,14.85
2022-08-14T04:35:11.975Z,14.84
2022-08-14T04:38:07.737Z,14.78
2022-08-14T04:41:10.091Z,14.74
2022-08-14T04:43:40.073Z,14.68
2022-08-14T04:46:11.884Z,14.79
2022-08-14T04:49:02.120Z,14.73
2022-08-14T04:51:37.455Z,14.21
2022-08-14T04:54:16.667Z,14.66
2022-08-14T04:56:45.596Z,14.80
2022-08-14T04:59:14.044Z,14.73
2022-08-14T05:01:48.018Z,14.88
2022-08-14T05:04:21.891Z,14.85
2022-08-14T05:06:53.578Z,15.06
2022-08-14T05:09:23.640Z,15.12
2022-08-14T05:11:53.062Z,15.12
2022-08-14T05:14:45.357Z,15.37
2022-08-14T05:17:10.954Z,15.36
2022-08-14T05:19:44.857Z,15.40
2022-08-14T05:22:30.221Z,15.55
2022-08-14T05:24:58.785Z,15.68
2022-08-14T05:27:31.092Z,15.72
2022-08-14T05:30:00.445Z,15.88
2022-08-14T05:32:28.677Z,15.80
2022-08-14T05:35:00.708Z,16.04
2022-08-14T05:37:30.857Z,16.12
2022-08-14T05:40:02.068Z,16.26
2022-08-14T05:42:31.995Z,16.33
2022-08-14T05:45:04.212Z,16.44
2022-08-14T05:47:39.665Z,16.57
2022-08-14T05:50:18.564Z,16.68
2022-08-14T05:52:50.894Z,17.06
2022-08-14T05:55:22.734Z,17.22
2022-08-14T05:57:57.969Z,17.42
2022-08-14T06:00:36.935Z,17.62
2022-08-14T06:03:10.135Z,17.87
2022-08-14T06:05:40.488Z,17.18
2022-08-14T06:08:31.470Z,18.05
2022-08-14T06:11:08.433Z,18.17
2022-08-14T06:13:45.293Z,18.45
2022-08-14T06:16:17.482Z,18.47
2022-08-14T06:18:48.633Z,18.61
2022-08-14T06:21:22.970Z,18.79
2022-08-14T06:23:51.765Z,18.99
2022-08-14T06:26:20.823Z,19.09
2022-08-14T06:28:52.488Z,19.27
2022-08-14T06:31:21.399Z,19.41
2022-08-14T06:35:02.545Z,19.61
2022-08-14T06:36:40.977Z,19.85
2022-08-14T06:39:10.758Z,19.88
2022-08-14T06:41:58.313Z,20.11
2022-08-14T06:44:53.343Z,20.06
2022-08-14T06:47:21.568Z,20.24
2022-08-14T06:49:56.119Z,20.38
2022-08-14T06:52:27.969Z,20.67
2022-08-14T06:54:58.143Z,20.71
2022-08-14T06:57:36.097Z,20.76
2022-08-14T07:00:08.478Z,20.80
2022-08-14T07:03:08.760Z,20.95
2022-08-14T07:05:55.328Z,21.07
2022-08-14T07:08:31.545Z,21.34
2022-08-14T07:11:03.983Z,21.37
2022-08-14T07:13:32.578Z,21.58
2022-08-14T07:16:05.686Z,21.58
2022-08-14T07:18:37.380Z,21.82
2022-08-14T07:21:10.187Z,21.91
2022-08-14T07:23:44.077Z,22.15
2022-08-14T07:26:13.562Z,22.37
2022-08-14T07:28:43.912Z,22.35
2022-08-14T07:31:13.761Z,22.63
2022-08-14T07:33:50.820Z,22.85
2022-08-14T07:36:27.400Z,22.94
2022-08-14T07:39:00.574Z,23.20
2022-08-14T07:41:31.245Z,23.24
2022-08-14T07:44:22.482Z,23.40
2022-08-14T07:46:51.653Z,23.37
2022-08-14T07:49:20.900Z,23.58
2022-08-14T07:51:52.525Z,23.61
2022-08-14T07:54:23.092Z,23.78
2022-08-14T07:56:59.741Z,23.80
2022-08-14T07:59:40.960Z,24.12
2022-08-14T08:02:19.248Z,24.14
2022-08-14T08:04:54.661Z,24.19
2022-08-14T08:07:29.829Z,24.24
2022-08-14T08:10:31.110Z,24.46
2022-08-14T08:13:17.535Z,24.68
2022-08-14T08:15:49.319Z,24.87
2022-08-14T08:18:27.595Z,24.94
2022-08-14T08:20:59.783Z,25.12
2022-08-14T08:23:31.054Z,25.14
2022-08-14T08:26:10.263Z,25.27
2022-08-14T08:28:38.566Z,25.35
2022-08-14T08:31:13.250Z,25.29
2022-08-14T08:33:43.622Z,25.46
2022-08-14T08:36:18.692Z,25.46
2022-08-14T08:39:18.457Z,25.83
2022-08-14T08:41:45.125Z,25.90
2022-08-14T08:44:31.179Z,26.03
2022-08-14T08:47:05.406Z,26.18
2022-08-14T08:49:59.201Z,26.28
2022-08-14T08:52:31.538Z,26.50
2022-08-14T08:55:00.814Z,26.52
2022-08-14T08:57:37.446Z,26.69
2022-08-14T09:00:24.179Z,26.79
2022-08-14T09:02:57.561Z,27.00
2022-08-14T09:05:27.218Z,27.08
2022-08-14T09:07:56.694Z,27.23
2022-08-14T09:10:27.083Z,27.38
2022-08-14T09:12:57.419Z,27.43
2022-08-14T09:15:26.014Z,27.47
2022-08-14T09:18:05.244Z,27.50
2022-08-14T09:20:33.775Z,27.17
2022-08-14T09:23:06.003Z,27.67
2022-08-14T09:25:58.970Z,27.80
2022-08-14T09:28:25.825Z,27.83
2022-08-14T09:30:57.859Z,27.79
2022-08-14T09:34:04.348Z,27.81
2022-08-14T09:37:00.745Z,28.16
2022-08-14T09:39:55.442Z,27.87
2022-08-14T09:42:49.868Z,27.68
2022-08-14T09:45:24.018Z,28.02
2022-08-14T09:47:54.471Z,27.99
2022-08-14T09:50:27.816Z,27.71
2022-08-14T09:52:59.967Z,28.14
2022-08-14T09:55:36.792Z,28.19
2022-08-14T09:58:19.384Z,28.14
2022-08-14T10:00:53.902Z,28.34
2022-08-14T10:03:33.995Z,28.34
2022-08-14T10:06:11.982Z,28.49
2022-08-14T10:08:50.991Z,28.78
2022-08-14T10:11:24.048Z,28.81
2022-08-14T10:13:55.922Z,28.84
2022-08-14T10:16:33.052Z,29.03
2022-08-14T10:19:12.115Z,29.08
2022-08-14T10:23:10.916Z,29.08
2022-08-14T10:24:40.137Z,28.93
2022-08-14T10:27:18.204Z,29.12
2022-08-14T10:29:51.127Z,29.01
2022-08-14T10:32:29.248Z,29.12
2022-08-14T10:35:13.276Z,29.22
2022-08-14T10:37:48.326Z,29.49
2022-08-14T10:40:38.653Z,29.73
2022-08-14T10:43:23.004Z,29.77
2022-08-14T10:46:21.579Z,29.89
2022-08-14T10:49:04.513Z,29.87
2022-08-14T10:51:36.186Z,29.65
2022-08-14T10:54:16.556Z,29.76
2022-08-14T10:56:58.916Z,30.12
2022-08-14T10:59:36.201Z,30.09
2022-08-14T11:02:22.300Z,30.30
2022-08-14T11:05:13.078Z,29.92
2022-08-14T11:07:57.058Z,30.04
2022-08-14T11:10:43.036Z,30.26
2022-08-14T11:13:17.296Z,30.32
2022-08-14T11:15:46.838Z,30.23
2022-08-14T11:18:20.364Z,30.40
2022-08-14T11:21:02.167Z,30.32
2022-08-14T11:23:38.505Z,30.57
2022-08-14T11:26:10.653Z,30.65
2022-08-14T11:28:47.053Z,30.74
2022-08-14T11:31:22.240Z,30.80
2022-08-14T11:33:57.565Z,30.90
2022-08-14T11:37:02.919Z,31.06
2022-08-14T11:39:34.027Z,31.11
2022-08-14T11:42:57.191Z,31.35
2022-08-14T11:45:00.696Z,31.56
2022-08-14T11:47:35.161Z,31.64
2022-08-14T11:50:34.144Z,31.74
2022-08-14T11:53:11.360Z,31.54
2022-08-14T11:55:42.397Z,31.83
2022-08-14T11:58:15.704Z,31.79
2022-08-14T12:00:55.204Z,31.78
2022-08-14T12:03:37.411Z,31.99
2022-08-14T12:06:29.165Z,31.91
2022-08-14T12:09:08.652Z,32.02
2022-08-14T12:11:47.275Z,32.33
2022-08-14T12:14:30.229Z,32.52
2022-08-14T12:17:02.028Z,32.36
2022-08-14T12:19:33.646Z,32.39
2022-08-14T12:22:03.631Z,32.25
2022-08-14T12:24:40.083Z,32.58
2022-08-14T12:27:09.093Z,32.67
2022-08-14T12:29:38.406Z,32.52
2022-08-14T12:32:08.946Z,32.64
2022-08-14T12:34:45.141Z,32.62
2022-08-14T12:37:13.612Z,32.65
2022-08-14T12:39:43.261Z,32.77
2022-08-14T12:42:27.310Z,33.63
2022-08-14T12:45:04.034Z,33.31
2022-08-14T12:47:32.625Z,33.28
2022-08-14T12:50:02.368Z,33.27
2022-08-14T12:52:42.921Z,32.92
2022-08-14T12:55:32.770Z,33.32
2022-08-14T12:58:34.924Z,33.27
2022-08-14T13:01:16.664Z,33.48
2022-08-14T13:03:48.035Z,33.64
2022-08-14T13:06:24.514Z,33.67
2022-08-14T13:08:53.822Z,33.82
2022-08-14T13:11:41.306Z,33.87
2022-08-14T13:14:17.173Z,33.70
2022-08-14T13:16:50.513Z,34.15
2022-08-14T13:19:20.763Z,34.19
2022-08-14T13:22:05.491Z,34.32
2022-08-14T13:24:40.141Z,34.14
2022-08-14T13:27:11.116Z,34.30
2022-08-14T13:29:46.825Z,34.57
2022-08-14T13:32:16.504Z,34.72
2022-08-14T13:34:48.846Z,34.44
2022-08-14T13:37:18.569Z,34.32
2022-08-14T13:39:57.045Z,33.59
2022-08-14T13:42:30.442Z,33.81
2022-08-14T13:45:01.503Z,33.91
2022-08-14T13:47:33.058Z,34.33
2022-08-14T13:50:04.509Z,34.31
2022-08-14T13:52:53.423Z,34.64
2022-08-14T13:55:28.548Z,33.76
2022-08-14T13:58:03.808Z,34.50
2022-08-14T14:00:53.263Z,34.45
2022-08-14T14:03:55.980Z,34.07
2022-08-14T14:06:35.585Z,33.99
2022-08-14T14:09:04.565Z,34.40
2022-08-14T14:11:33.739Z,34.52
2022-08-14T14:14:04.959Z,34.32
2022-08-14T14:16:33.505Z,33.96
2022-08-14T14:19:09.570Z,33.81
2022-08-14T14:21:40.958Z,33.75
2022-08-14T14:24:14.667Z,33.66
2022-08-14T14:26:47.852Z,33.82
2022-08-14T14:29:23.980Z,34.22
2022-08-14T14:31:55.185Z,34.50
2022-08-14T14:34:30.710Z,33.87
2022-08-14T14:37:02.837Z,34.60
2022-08-14T14:39:37.569Z,34.42
2022-08-14T14:42:31.760Z,34.21
2022-08-14T14:45:07.611Z,33.56
2022-08-14T14:47:37.900Z,34.06
2022-08-14T14:50:08.892Z,33.14
2022-08-14T14:52:39.581Z,32.78
2022-08-14T14:55:12.552Z,32.77
2022-08-14T14:57:52.152Z,32.90
2022-08-14T15:00:25.162Z,33.42
2022-08-14T15:02:59.934Z,33.51
2022-08-14T15:05:28.704Z,33.38
2022-08-14T15:07:57.718Z,32.79
2022-08-14T15:10:31.055Z,32.88
2022-08-14T15:13:03.612Z,32.93
2022-08-14T15:15:36.827Z,33.05
2022-08-14T15:18:36.735Z,32.92
2022-08-14T15:20:58.095Z,32.75
2022-08-14T15:23:43.882Z,32.67
2022-08-14T15:26:24.331Z,32.79
2022-08-14T15:29:05.712Z,32.74
2022-08-14T15:31:37.336Z,32.93
2022-08-14T15:34:45.443Z,32.75
2022-08-14T15:37:04.943Z,32.75
2022-08-14T15:39:35.827Z,32.67
2022-08-14T15:42:09.418Z,32.64
2022-08-14T15:44:58.414Z,31.84
2022-08-14T15:47:32.313Z,31.80
2022-08-14T15:50:04.795Z,31.90
2022-08-14T15:52:37.137Z,31.71
2022-08-14T15:55:13.008Z,31.12
2022-08-14T15:58:01.303Z,31.68
2022-08-14T16:00:49.345Z,32.05
2022-08-14T16:03:27.143Z,32.00
2022-08-14T16:06:05.856Z,32.02
2022-08-14T16:08:40.252Z,31.93
2022-08-14T16:11:10.426Z,31.98
2022-08-14T16:13:43.193Z,31.99
2022-08-14T16:16:50.825Z,31.72
2022-08-14T16:19:09.798Z,31.66
2022-08-14T16:22:02.059Z,31.76
2022-08-14T16:24:35.880Z,31.60
2022-08-14T16:27:39.359Z,31.48
2022-08-14T16:30:25.183Z,31.50
2022-08-14T16:32:57.424Z,31.23
2022-08-14T16:35:42.547Z,31.09
2022-08-14T16:38:45.000Z,30.27
2022-08-14T16:41:29.762Z,30.94
2022-08-14T16:44:02.292Z,30.73
2022-08-14T16:46:34.738Z,30.68
2022-08-14T16:49:06.176Z,30.65
2022-08-14T16:51:39.038Z,30.59
2022-08-14T16:54:33.956Z,30.57
2022-08-14T16:57:15.916Z,30.56
2022-08-14T16:59:52.347Z,29.72
2022-08-14T17:02:36.229Z,30.43
2022-08-14T17:05:19.373Z,30.33
2022-08-14T17:08:31.672Z,30.21
2022-08-14T17:11:10.080Z,30.06
2022-08-14T17:14:00.026Z,30.13
2022-08-14T17:16:37.016Z,30.04
2022-08-14T17:19:13.613Z,30.01
2022-08-14T17:21:46.789Z,29.99
2022-08-14T17:24:56.261Z,29.88
2022-08-14T17:27:08.340Z,29.76
2022-08-14T17:29:44.683Z,29.61
2022-08-14T17:32:29.891Z,29.51
2022-08-14T17:35:16.443Z,29.42
2022-08-14T17:37:55.762Z,29.27
2022-08-14T17:40:31.296Z,29.26
2022-08-14T17:43:02.441Z,29.05
2022-08-14T17:45:46.851Z,28.96
2022-08-14T17:49:10.679Z,28.85
2022-08-14T17:51:23.934Z,28.82
2022-08-14T17:54:02.363Z,28.60
2022-08-14T17:56:38.739Z,28.31
2022-08-14T17:59:07.438Z,28.53
2022-08-14T18:01:40.780Z,28.34
2022-08-14T18:04:32.339Z,28.10
2022-08-14T18:07:09.930Z,28.17
2022-08-14T18:09:57.080Z,28.06
2022-08-14T18:12:32.909Z,27.94
2022-08-14T18:15:16.756Z,27.87
2022-08-14T18:17:53.162Z,27.60
2022-08-14T18:21:40.163Z,27.51
2022-08-14T18:23:14.543Z,27.37
2022-08-14T18:25:50.332Z,27.18
2022-08-14T18:28:51.208Z,26.53
2022-08-14T18:31:42.070Z,26.88
2022-08-14T18:34:30.889Z,26.65
2022-08-14T18:37:16.650Z,26.64
2022-08-14T18:40:02.907Z,26.48
2022-08-14T18:42:45.780Z,26.45
2022-08-14T18:45:18.901Z,26.40
2022-08-14T18:48:33.208Z,26.13
2022-08-14T18:51:15.206Z,26.05
2022-08-14T18:53:59.720Z,25.86
2022-08-14T18:56:57.887Z,25.76
2022-08-14T18:59:36.203Z,25.60
2022-08-14T19:02:44.365Z,25.47
2022-08-14T19:05:14.426Z,25.37
2022-08-14T19:07:43.492Z,25.25
2022-08-14T19:10:37.417Z,25.64
2022-08-14T19:13:12.103Z,25.04
2022-08-14T19:15:44.215Z,25.02
2022-08-14T19:18:29.870Z,24.55
2022-08-14T19:21:00.877Z,24.86
2022-08-14T19:23:43.308Z,24.75
2022-08-14T19:26:35.797Z,24.72
2022-08-14T19:29:37.540Z,24.58
2022-08-14T19:32:40.788Z,24.11
2022-08-14T19:35:55.513Z,24.32
2022-08-14T19:38:53.469Z,24.18
2022-08-14T19:41:29.409Z,24.05
2022-08-14T19:44:10.910Z,23.53
2022-08-14T19:47:00.428Z,23.92
2022-08-14T19:50:07.351Z,23.71
2022-08-14T19:52:29.726Z,23.64
2022-08-14T19:54:59.921Z,23.68
2022-08-14T19:57:31.224Z,23.72
2022-08-14T20:00:28.553Z,23.57
2022-08-14T20:04:00.627Z,23.29
2022-08-14T20:06:46.481Z,23.33
2022-08-14T20:11:06.337Z,23.18
2022-08-14T20:12:05.814Z,22.92
2022-08-14T20:14:53.664Z,23.07
2022-08-14T20:17:24.541Z,22.69
2022-08-14T20:19:52.753Z,22.80
2022-08-14T20:22:38.704Z,22.89
2022-08-14T20:25:18.289Z,22.61
2022-08-14T20:27:59.467Z,22.52
2022-08-14T20:30:34.593Z,22.02
2022-08-14T20:33:07.810Z,22.38
2022-08-14T20:35:44.538Z,22.23
2022-08-14T20:38:28.642Z,22.12
2022-08-14T20:41:05.815Z,21.97
2022-08-14T20:43:56.025Z,21.81
2022-08-14T20:46:31.270Z,21.80
2022-08-14T20:49:02.348Z,21.81
2022-08-14T20:51:47.453Z,21.81
2022-08-14T20:54:34.592Z,21.64
2022-08-14T20:57:10.635Z,21.57
2022-08-14T20:59:43.789Z,21.61
2022-08-14T21:02:46.843Z,21.44
2022-08-14T21:05:33.338Z,21.23
2022-08-14T21:08:08.062Z,21.12
2022-08-14T21:10:44.607Z,21.20
2022-08-14T21:14:09.074Z,21.16
2022-08-14T21:16:33.037Z,20.95
2022-08-14T21:19:00.129Z,20.54
2022-08-14T21:21:40.460Z,20.64
2022-08-14T21:24:39.841Z,20.93
2022-08-14T21:27:12.734Z,20.80
2022-08-14T21:29:53.507Z,20.97
2022-08-14T21:32:33.855Z,20.92
2022-08-14T21:35:08.562Z,20.52
2022-08-14T21:37:44.008Z,20.64
2022-08-14T21:40:39.902Z,20.19
2022-08-14T21:43:05.023Z,20.87
2022-08-14T21:45:35.578Z,21.30
2022-08-14T21:48:09.137Z,21.17
2022-08-14T21:51:02.040Z,21.35
2022-08-14T21:53:32.854Z,21.46
2022-08-14T21:56:03.610Z,21.59
2022-08-14T21:58:52.979Z,21.50
2022-08-14T22:01:21.521Z,21.65
2022-08-14T22:03:56.809Z,21.55
2022-08-14T22:06:29.477Z,21.63
2022-08-14T22:08:58.552Z,21.48
2022-08-14T22:11:27.840Z,21.33
2022-08-14T22:14:02.349Z,21.36
2022-08-14T22:17:02.007Z,21.18
2022-08-14T22:19:47.550Z,21.05
2022-08-14T22:22:26.379Z,21.17
2022-08-14T22:24:59.759Z,21.38
2022-08-14T22:27:32.552Z,21.25
2022-08-14T22:30:02.304Z,21.32
2022-08-14T22:32:56.119Z,21.54
2022-08-14T22:35:23.443Z,21.44
2022-08-14T22:38:35.928Z,21.59
2022-08-14T22:41:07.189Z,21.50
2022-08-14T22:43:35.257Z,21.60
2022-08-14T22:46:14.841Z,21.54
2022-08-14T22:48:45.275Z,21.39
2022-08-14T22:51:15.959Z,21.51
2022-08-14T22:53:51.699Z,21.66
2022-08-14T22:56:29.269Z,21.61
2022-08-14T22:59:00.209Z,21.51
2022-08-14T23:01:57.049Z,21.63
2022-08-14T23:04:34.907Z,21.12
2022-08-14T23:07:22.600Z,21.49
2022-08-14T23:09:57.030Z,21.31
2022-08-14T23:12:29.636Z,21.33
2022-08-14T23:15:00.345Z,21.05
2022-08-14T23:17:39.607Z,20.67
2022-08-14T23:20:18.947Z,20.49
2022-08-14T23:22:51.804Z,20.64
2022-08-14T23:25:57.978Z,20.66
2022-08-14T23:28:34.820Z,20.59
2022-08-14T23:31:15.649Z,20.20
2022-08-14T23:34:06.956Z,20.74
2022-08-14T23:36:54.552Z,20.73
2022-08-14T23:39:30.246Z,20.87
2022-08-14T23:42:04.807Z,20.41
2022-08-14T23:44:37.595Z,20.22
2022-08-14T23:47:11.891Z,19.88
2022-08-14T23:50:04.170Z,20.28
2022-08-14T23:52:56.282Z,20.61
2022-08-14T23:55:32.164Z,20.63
2022-08-14T23:58:01.859Z,20.53
